sensor_id;sensor_type;location;lat;lon;timestamp;P1;durP1;ratioP1;P2;durP2;ratioP2
76610;SDS011;65503;48.534;9.062;2023-03-05T00:01:14;50.40;;;17.33;;
76610;SDS011;65503;48.534;9.062;2023-03-05T00:03:43;39.53;;;15.75;;
76610;SDS011;65503;48.534;9.062;2023-03-05T00:06:10;43.55;;;17.13;;
76610;SDS011;65503;48.534;9.062;2023-03-05T00:08:37;52.58;;;16.77;;
76610;SDS011;65503;48.534;9.062;2023-03-05T00:11:05;41.83;;;17.58;;
76610;SDS011;65503;48.534;9.062;2023-03-05T00:13:34;48.08;;;17.13;;
76610;SDS011;65503;48.534;9.062;2023-03-05T00:16:02;46.80;;;17.52;;
76610;SDS011;65503;48.534;9.062;2023-03-05T00:18:30;44.67;;;16.85;;
76610;SDS011;65503;48.534;9.062;2023-03-05T00:20:56;47.47;;;16.20;;
76610;SDS011;65503;48.534;9.062;2023-03-05T00:23:23;49.03;;;17.15;;
76610;SDS011;65503;48.534;9.062;2023-03-05T00:25:50;44.95;;;17.02;;
76610;SDS011;65503;48.534;9.062;2023-03-05T00:28:16;39.63;;;15.85;;
76610;SDS011;65503;48.534;9.062;2023-03-05T00:30:43;46.17;;;16.95;;
76610;SDS011;65503;48.534;9.062;2023-03-05T00:33:10;43.75;;;15.95;;
76610;SDS011;65503;48.534;9.062;2023-03-05T00:35:41;41.78;;;16.42;;
76610;SDS011;65503;48.534;9.062;2023-03-05T00:38:08;42.53;;;16.58;;
76610;SDS011;65503;48.534;9.062;2023-03-05T00:40:38;43.78;;;16.88;;
76610;SDS011;65503;48.534;9.062;2023-03-05T00:43:05;44.47;;;16.35;;
76610;SDS011;65503;48.534;9.062;2023-03-05T00:45:32;43.00;;;15.38;;
76610;SDS011;65503;48.534;9.062;2023-03-05T00:48:00;47.45;;;18.15;;
76610;SDS011;65503;48.534;9.062;2023-03-05T00:50:27;43.55;;;15.88;;
76610;SDS011;65503;48.534;9.062;2023-03-05T00:52:53;48.67;;;16.45;;
76610;SDS011;65503;48.534;9.062;2023-03-05T00:55:20;46.80;;;17.45;;
76610;SDS011;65503;48.534;9.062;2023-03-05T00:57:47;48.20;;;16.17;;
76610;SDS011;65503;48.534;9.062;2023-03-05T01:00:13;51.45;;;16.00;;
76610;SDS011;65503;48.534;9.062;2023-03-05T01:02:40;48.13;;;17.25;;
76610;SDS011;65503;48.534;9.062;2023-03-05T01:05:09;40.20;;;14.63;;
76610;SDS011;65503;48.534;9.062;2023-03-05T01:07:37;42.60;;;16.55;;
76610;SDS011;65503;48.534;9.062;2023-03-05T01:10:04;47.38;;;17.38;;
76610;SDS011;65503;48.534;9.062;2023-03-05T01:12:32;42.70;;;15.90;;
76610;SDS011;65503;48.534;9.062;2023-03-05T01:14:58;42.13;;;16.70;;
76610;SDS011;65503;48.534;9.062;2023-03-05T01:17:25;42.30;;;14.77;;
76610;SDS011;65503;48.534;9.062;2023-03-05T01:19:52;44.97;;;16.98;;
76610;SDS011;65503;48.534;9.062;2023-03-05T01:22:18;45.35;;;17.10;;
76610;SDS011;65503;48.534;9.062;2023-03-05T01:24:45;45.88;;;17.20;;
76610;SDS011;65503;48.534;9.062;2023-03-05T01:27:11;43.05;;;15.90;;
76610;SDS011;65503;48.534;9.062;2023-03-05T01:29:38;47.78;;;15.70;;
76610;SDS011;65503;48.534;9.062;2023-03-05T01:32:04;46.78;;;16.27;;
76610;SDS011;65503;48.534;9.062;2023-03-05T01:34:31;41.05;;;16.65;;
76610;SDS011;65503;48.534;9.062;2023-03-05T01:36:58;43.67;;;16.08;;
76610;SDS011;65503;48.534;9.062;2023-03-05T01:39:24;43.88;;;17.90;;
76610;SDS011;65503;48.534;9.062;2023-03-05T01:41:50;47.92;;;16.67;;
76610;SDS011;65503;48.534;9.062;2023-03-05T01:44:21;50.67;;;16.70;;
76610;SDS011;65503;48.534;9.062;2023-03-05T01:46:50;43.53;;;14.85;;
76610;SDS011;65503;48.534;9.062;2023-03-05T01:51:58;45.20;;;16.70;;
76610;SDS011;65503;48.534;9.062;2023-03-05T01:54:35;39.80;;;16.05;;
76610;SDS011;65503;48.534;9.062;2023-03-05T01:57:06;44.22;;;15.93;;
76610;SDS011;65503;48.534;9.062;2023-03-05T01:59:36;44.95;;;15.98;;
76610;SDS011;65503;48.534;9.062;2023-03-05T02:02:05;46.15;;;15.82;;
76610;SDS011;65503;48.534;9.062;2023-03-05T02:04:35;40.50;;;16.65;;
76610;SDS011;65503;48.534;9.062;2023-03-05T02:07:07;45.22;;;16.15;;
76610;SDS011;65503;48.534;9.062;2023-03-05T02:09:38;46.22;;;16.80;;
76610;SDS011;65503;48.534;9.062;2023-03-05T02:12:07;42.00;;;16.45;;
76610;SDS011;65503;48.534;9.062;2023-03-05T02:14:35;45.10;;;17.13;;
76610;SDS011;65503;48.534;9.062;2023-03-05T02:17:02;41.67;;;15.25;;
76610;SDS011;65503;48.534;9.062;2023-03-05T02:19:29;44.78;;;15.88;;
76610;SDS011;65503;48.534;9.062;2023-03-05T02:22:15;47.83;;;16.38;;
76610;SDS011;65503;48.534;9.062;2023-03-05T02:24:43;41.33;;;15.68;;
76610;SDS011;65503;48.534;9.062;2023-03-05T02:27:10;40.60;;;15.48;;
76610;SDS011;65503;48.534;9.062;2023-03-05T02:29:39;42.60;;;15.70;;
76610;SDS011;65503;48.534;9.062;2023-03-05T02:32:08;42.17;;;16.58;;
76610;SDS011;65503;48.534;9.062;2023-03-05T02:34:35;41.55;;;15.48;;
76610;SDS011;65503;48.534;9.062;2023-03-05T02:37:02;41.72;;;16.65;;
76610;SDS011;65503;48.534;9.062;2023-03-05T02:39:30;41.40;;;15.38;;
76610;SDS011;65503;48.534;9.062;2023-03-05T02:41:57;42.75;;;16.23;;
76610;SDS011;65503;48.534;9.062;2023-03-05T02:44:23;42.03;;;16.45;;
76610;SDS011;65503;48.534;9.062;2023-03-05T02:46:50;46.65;;;16.60;;
76610;SDS011;65503;48.534;9.062;2023-03-05T02:49:16;46.67;;;16.38;;
76610;SDS011;65503;48.534;9.062;2023-03-05T02:51:46;41.60;;;17.25;;
76610;SDS011;65503;48.534;9.062;2023-03-05T02:54:12;44.92;;;16.77;;
76610;SDS011;65503;48.534;9.062;2023-03-05T02:56:39;39.90;;;16.23;;
76610;SDS011;65503;48.534;9.062;2023-03-05T02:59:05;44.50;;;16.73;;
76610;SDS011;65503;48.534;9.062;2023-03-05T03:01:32;42.97;;;16.52;;
76610;SDS011;65503;48.534;9.062;2023-03-05T03:03:58;45.45;;;16.17;;
76610;SDS011;65503;48.534;9.062;2023-03-05T03:06:25;48.22;;;16.95;;
76610;SDS011;65503;48.534;9.062;2023-03-05T03:08:51;42.95;;;18.23;;
76610;SDS011;65503;48.534;9.062;2023-03-05T03:11:18;40.17;;;15.35;;
76610;SDS011;65503;48.534;9.062;2023-03-05T03:13:44;41.67;;;15.88;;
76610;SDS011;65503;48.534;9.062;2023-03-05T03:16:12;48.17;;;16.42;;
76610;SDS011;65503;48.534;9.062;2023-03-05T03:18:39;42.85;;;16.27;;
76610;SDS011;65503;48.534;9.062;2023-03-05T03:21:06;43.05;;;17.90;;
76610;SDS011;65503;48.534;9.062;2023-03-05T03:23:33;40.63;;;16.17;;
76610;SDS011;65503;48.534;9.062;2023-03-05T03:26:00;43.40;;;16.20;;
76610;SDS011;65503;48.534;9.062;2023-03-05T03:28:26;47.10;;;16.83;;
76610;SDS011;65503;48.534;9.062;2023-03-05T03:30:53;43.05;;;17.23;;
76610;SDS011;65503;48.534;9.062;2023-03-05T03:33:19;40.75;;;15.38;;
76610;SDS011;65503;48.534;9.062;2023-03-05T03:35:46;39.00;;;15.35;;
76610;SDS011;65503;48.534;9.062;2023-03-05T03:38:12;50.00;;;17.73;;
76610;SDS011;65503;48.534;9.062;2023-03-05T03:40:39;44.33;;;16.70;;
76610;SDS011;65503;48.534;9.062;2023-03-05T03:43:07;43.83;;;16.73;;
76610;SDS011;65503;48.534;9.062;2023-03-05T03:45:33;46.75;;;17.15;;
76610;SDS011;65503;48.534;9.062;2023-03-05T03:48:00;43.13;;;15.90;;
76610;SDS011;65503;48.534;9.062;2023-03-05T03:50:26;48.67;;;16.83;;
76610;SDS011;65503;48.534;9.062;2023-03-05T03:52:53;44.90;;;16.25;;
76610;SDS011;65503;48.534;9.062;2023-03-05T03:55:19;49.80;;;17.17;;
76610;SDS011;65503;48.534;9.062;2023-03-05T03:57:46;46.17;;;17.63;;
76610;SDS011;65503;48.534;9.062;2023-03-05T04:00:12;44.15;;;16.58;;
76610;SDS011;65503;48.534;9.062;2023-03-05T04:02:39;44.70;;;16.40;;
76610;SDS011;65503;48.534;9.062;2023-03-05T04:05:06;49.90;;;16.35;;
76610;SDS011;65503;48.534;9.062;2023-03-05T04:07:33;45.53;;;16.35;;
76610;SDS011;65503;48.534;9.062;2023-03-05T04:09:59;44.53;;;17.48;;
76610;SDS011;65503;48.534;9.062;2023-03-05T04:12:26;40.97;;;17.30;;
76610;SDS011;65503;48.534;9.062;2023-03-05T04:14:52;48.70;;;18.20;;
76610;SDS011;65503;48.534;9.062;2023-03-05T04:17:18;43.10;;;16.58;;
76610;SDS011;65503;48.534;9.062;2023-03-05T04:19:45;45.88;;;15.68;;
76610;SDS011;65503;48.534;9.062;2023-03-05T04:22:12;43.13;;;16.30;;
76610;SDS011;65503;48.534;9.062;2023-03-05T04:24:42;48.17;;;16.80;;
76610;SDS011;65503;48.534;9.062;2023-03-05T04:27:09;42.05;;;16.20;;
76610;SDS011;65503;48.534;9.062;2023-03-05T04:29:36;44.03;;;16.15;;
76610;SDS011;65503;48.534;9.062;2023-03-05T04:32:03;52.22;;;18.40;;
76610;SDS011;65503;48.534;9.062;2023-03-05T04:34:30;50.10;;;17.00;;
76610;SDS011;65503;48.534;9.062;2023-03-05T04:36:57;52.17;;;18.35;;
76610;SDS011;65503;48.534;9.062;2023-03-05T04:39:24;43.10;;;16.48;;
76610;SDS011;65503;48.534;9.062;2023-03-05T04:41:50;47.85;;;16.67;;
76610;SDS011;65503;48.534;9.062;2023-03-05T04:44:17;48.60;;;17.90;;
76610;SDS011;65503;48.534;9.062;2023-03-05T04:46:44;50.85;;;18.58;;
76610;SDS011;65503;48.534;9.062;2023-03-05T04:49:10;46.45;;;17.38;;
76610;SDS011;65503;48.534;9.062;2023-03-05T04:51:37;55.90;;;18.92;;
76610;SDS011;65503;48.534;9.062;2023-03-05T04:54:03;52.83;;;17.65;;
76610;SDS011;65503;48.534;9.062;2023-03-05T04:56:30;43.85;;;16.17;;
76610;SDS011;65503;48.534;9.062;2023-03-05T04:58:56;45.78;;;16.58;;
76610;SDS011;65503;48.534;9.062;2023-03-05T05:01:23;45.70;;;16.40;;
76610;SDS011;65503;48.534;9.062;2023-03-05T05:03:50;38.92;;;16.15;;
76610;SDS011;65503;48.534;9.062;2023-03-05T05:06:16;46.60;;;16.23;;
76610;SDS011;65503;48.534;9.062;2023-03-05T05:08:43;49.90;;;17.75;;
76610;SDS011;65503;48.534;9.062;2023-03-05T05:11:09;43.92;;;16.20;;
76610;SDS011;65503;48.534;9.062;2023-03-05T05:13:39;39.85;;;14.82;;
76610;SDS011;65503;48.534;9.062;2023-03-05T05:16:06;46.45;;;15.75;;
76610;SDS011;65503;48.534;9.062;2023-03-05T05:18:33;45.35;;;16.45;;
76610;SDS011;65503;48.534;9.062;2023-03-05T05:20:59;41.08;;;14.15;;
76610;SDS011;65503;48.534;9.062;2023-03-05T05:23:26;43.35;;;15.88;;
76610;SDS011;65503;48.534;9.062;2023-03-05T05:25:56;37.75;;;14.07;;
76610;SDS011;65503;48.534;9.062;2023-03-05T05:28:27;45.08;;;15.25;;
76610;SDS011;65503;48.534;9.062;2023-03-05T05:30:54;46.45;;;16.75;;
76610;SDS011;65503;48.534;9.062;2023-03-05T05:33:20;40.40;;;14.30;;
76610;SDS011;65503;48.534;9.062;2023-03-05T05:35:47;46.08;;;17.10;;
76610;SDS011;65503;48.534;9.062;2023-03-05T05:38:14;41.47;;;15.90;;
76610;SDS011;65503;48.534;9.062;2023-03-05T05:40:42;41.63;;;15.32;;
76610;SDS011;65503;48.534;9.062;2023-03-05T05:43:08;44.47;;;14.85;;
76610;SDS011;65503;48.534;9.062;2023-03-05T05:45:38;44.97;;;15.40;;
76610;SDS011;65503;48.534;9.062;2023-03-05T05:48:05;46.50;;;16.48;;
76610;SDS011;65503;48.534;9.062;2023-03-05T05:50:32;40.47;;;14.82;;
76610;SDS011;65503;48.534;9.062;2023-03-05T05:52:58;43.90;;;15.60;;
76610;SDS011;65503;48.534;9.062;2023-03-05T05:55:25;47.03;;;15.18;;
76610;SDS011;65503;48.534;9.062;2023-03-05T05:57:51;38.92;;;14.38;;
76610;SDS011;65503;48.534;9.062;2023-03-05T06:00:18;39.95;;;14.30;;
76610;SDS011;65503;48.534;9.062;2023-03-05T06:02:45;45.92;;;15.25;;
76610;SDS011;65503;48.534;9.062;2023-03-05T06:05:12;41.00;;;15.25;;
76610;SDS011;65503;48.534;9.062;2023-03-05T06:07:40;44.60;;;15.40;;
76610;SDS011;65503;48.534;9.062;2023-03-05T06:10:07;44.05;;;16.75;;
76610;SDS011;65503;48.534;9.062;2023-03-05T06:12:35;50.28;;;15.35;;
76610;SDS011;65503;48.534;9.062;2023-03-05T06:15:01;44.53;;;16.63;;
76610;SDS011;65503;48.534;9.062;2023-03-05T06:17:28;41.67;;;15.70;;
76610;SDS011;65503;48.534;9.062;2023-03-05T06:19:56;42.00;;;14.88;;
76610;SDS011;65503;48.534;9.062;2023-03-05T06:22:23;50.92;;;16.90;;
76610;SDS011;65503;48.534;9.062;2023-03-05T06:24:50;40.70;;;15.30;;
76610;SDS011;65503;48.534;9.062;2023-03-05T06:27:16;45.80;;;14.82;;
76610;SDS011;65503;48.534;9.062;2023-03-05T06:29:43;45.17;;;17.02;;
76610;SDS011;65503;48.534;9.062;2023-03-05T06:32:09;51.33;;;15.35;;
76610;SDS011;65503;48.534;9.062;2023-03-05T06:34:36;39.90;;;15.65;;
76610;SDS011;65503;48.534;9.062;2023-03-05T06:37:02;39.90;;;15.10;;
76610;SDS011;65503;48.534;9.062;2023-03-05T06:39:29;39.85;;;14.45;;
76610;SDS011;65503;48.534;9.062;2023-03-05T06:41:56;44.65;;;15.90;;
76610;SDS011;65503;48.534;9.062;2023-03-05T06:44:23;44.80;;;16.20;;
76610;SDS011;65503;48.534;9.062;2023-03-05T06:46:50;50.00;;;14.60;;
76610;SDS011;65503;48.534;9.062;2023-03-05T06:49:17;37.03;;;14.35;;
76610;SDS011;65503;48.534;9.062;2023-03-05T06:51:43;41.08;;;15.02;;
76610;SDS011;65503;48.534;9.062;2023-03-05T06:54:11;38.70;;;14.70;;
76610;SDS011;65503;48.534;9.062;2023-03-05T06:56:40;44.35;;;18.08;;
76610;SDS011;65503;48.534;9.062;2023-03-05T06:59:07;40.03;;;14.70;;
76610;SDS011;65503;48.534;9.062;2023-03-05T07:01:35;47.22;;;16.25;;
76610;SDS011;65503;48.534;9.062;2023-03-05T07:04:02;41.47;;;15.13;;
76610;SDS011;65503;48.534;9.062;2023-03-05T07:06:33;41.17;;;15.57;;
76610;SDS011;65503;48.534;9.062;2023-03-05T07:09:01;35.47;;;14.40;;
76610;SDS011;65503;48.534;9.062;2023-03-05T07:11:29;41.13;;;15.10;;
76610;SDS011;65503;48.534;9.062;2023-03-05T07:13:56;39.90;;;15.55;;
76610;SDS011;65503;48.534;9.062;2023-03-05T07:16:25;39.83;;;15.50;;
76610;SDS011;65503;48.534;9.062;2023-03-05T07:18:53;41.22;;;16.27;;
76610;SDS011;65503;48.534;9.062;2023-03-05T07:21:23;41.97;;;14.73;;
76610;SDS011;65503;48.534;9.062;2023-03-05T07:23:52;39.72;;;14.45;;
76610;SDS011;65503;48.534;9.062;2023-03-05T07:26:20;40.55;;;14.65;;
76610;SDS011;65503;48.534;9.062;2023-03-05T07:28:47;39.53;;;15.32;;
76610;SDS011;65503;48.534;9.062;2023-03-05T07:31:18;37.72;;;14.90;;
76610;SDS011;65503;48.534;9.062;2023-03-05T07:33:47;41.25;;;14.55;;
76610;SDS011;65503;48.534;9.062;2023-03-05T07:36:15;40.72;;;14.50;;
76610;SDS011;65503;48.534;9.062;2023-03-05T07:38:42;36.55;;;13.63;;
76610;SDS011;65503;48.534;9.062;2023-03-05T07:41:10;37.33;;;15.60;;
76610;SDS011;65503;48.534;9.062;2023-03-05T07:43:45;34.50;;;13.10;;
76610;SDS011;65503;48.534;9.062;2023-03-05T07:48:40;34.60;;;13.98;;
76610;SDS011;65503;48.534;9.062;2023-03-05T07:51:08;37.63;;;14.13;;
76610;SDS011;65503;48.534;9.062;2023-03-05T07:53:40;37.33;;;15.02;;
76610;SDS011;65503;48.534;9.062;2023-03-05T07:56:08;34.50;;;14.15;;
76610;SDS011;65503;48.534;9.062;2023-03-05T07:58:35;41.72;;;15.07;;
76610;SDS011;65503;48.534;9.062;2023-03-05T08:01:02;37.92;;;14.95;;
76610;SDS011;65503;48.534;9.062;2023-03-05T08:03:29;35.70;;;14.52;;
76610;SDS011;65503;48.534;9.062;2023-03-05T08:05:55;37.50;;;14.57;;
76610;SDS011;65503;48.534;9.062;2023-03-05T08:08:22;40.90;;;16.42;;
76610;SDS011;65503;48.534;9.062;2023-03-05T08:10:48;45.05;;;16.35;;
76610;SDS011;65503;48.534;9.062;2023-03-05T08:13:15;40.30;;;16.02;;
76610;SDS011;65503;48.534;9.062;2023-03-05T08:15:41;36.42;;;15.30;;
76610;SDS011;65503;48.534;9.062;2023-03-05T08:18:08;33.40;;;14.82;;
76610;SDS011;65503;48.534;9.062;2023-03-05T08:20:35;38.47;;;15.02;;
76610;SDS011;65503;48.534;9.062;2023-03-05T08:23:01;39.20;;;15.20;;
76610;SDS011;65503;48.534;9.062;2023-03-05T08:25:29;43.58;;;15.55;;
76610;SDS011;65503;48.534;9.062;2023-03-05T08:27:55;35.78;;;15.07;;
76610;SDS011;65503;48.534;9.062;2023-03-05T08:30:22;38.72;;;13.90;;
76610;SDS011;65503;48.534;9.062;2023-03-05T08:32:52;37.78;;;14.35;;
76610;SDS011;65503;48.534;9.062;2023-03-05T08:35:19;44.40;;;15.13;;
76610;SDS011;65503;48.534;9.062;2023-03-05T08:37:48;39.20;;;14.85;;
76610;SDS011;65503;48.534;9.062;2023-03-05T08:40:14;38.13;;;16.70;;
76610;SDS011;65503;48.534;9.062;2023-03-05T08:42:43;37.95;;;13.32;;
76610;SDS011;65503;48.534;9.062;2023-03-05T08:45:10;36.28;;;14.82;;
76610;SDS011;65503;48.534;9.062;2023-03-05T08:47:37;36.05;;;14.98;;
76610;SDS011;65503;48.534;9.062;2023-03-05T08:50:03;37.42;;;14.95;;
76610;SDS011;65503;48.534;9.062;2023-03-05T08:52:30;35.42;;;14.40;;
76610;SDS011;65503;48.534;9.062;2023-03-05T08:54:57;35.55;;;14.48;;
76610;SDS011;65503;48.534;9.062;2023-03-05T08:57:23;37.45;;;14.38;;
76610;SDS011;65503;48.534;9.062;2023-03-05T08:59:49;33.92;;;13.95;;
76610;SDS011;65503;48.534;9.062;2023-03-05T09:02:16;39.15;;;14.63;;
76610;SDS011;65503;48.534;9.062;2023-03-05T09:04:44;33.13;;;14.25;;
76610;SDS011;65503;48.534;9.062;2023-03-05T09:07:10;37.45;;;15.15;;
76610;SDS011;65503;48.534;9.062;2023-03-05T09:09:38;37.35;;;14.15;;
76610;SDS011;65503;48.534;9.062;2023-03-05T09:12:05;31.48;;;13.70;;
76610;SDS011;65503;48.534;9.062;2023-03-05T09:14:32;35.08;;;13.98;;
76610;SDS011;65503;48.534;9.062;2023-03-05T09:16:58;31.95;;;13.70;;
76610;SDS011;65503;48.534;9.062;2023-03-05T09:19:25;30.10;;;13.05;;
76610;SDS011;65503;48.534;9.062;2023-03-05T09:21:52;31.77;;;14.15;;
76610;SDS011;65503;48.534;9.062;2023-03-05T09:24:22;33.20;;;13.73;;
76610;SDS011;65503;48.534;9.062;2023-03-05T09:26:48;33.03;;;14.50;;
76610;SDS011;65503;48.534;9.062;2023-03-05T09:29:15;29.80;;;12.98;;
76610;SDS011;65503;48.534;9.062;2023-03-05T09:31:41;30.77;;;13.75;;
76610;SDS011;65503;48.534;9.062;2023-03-05T09:34:09;28.02;;;12.70;;
76610;SDS011;65503;48.534;9.062;2023-03-05T09:36:36;30.35;;;12.65;;
76610;SDS011;65503;48.534;9.062;2023-03-05T09:39:03;30.70;;;13.48;;
76610;SDS011;65503;48.534;9.062;2023-03-05T09:53:13;29.17;;;13.23;;
76610;SDS011;65503;48.534;9.062;2023-03-05T09:55:51;28.88;;;13.27;;
76610;SDS011;65503;48.534;9.062;2023-03-05T09:58:30;30.00;;;13.15;;
76610;SDS011;65503;48.534;9.062;2023-03-05T10:01:03;31.92;;;13.32;;
76610;SDS011;65503;48.534;9.062;2023-03-05T10:03:43;34.40;;;13.43;;
76610;SDS011;65503;48.534;9.062;2023-03-05T10:06:22;27.83;;;12.65;;
76610;SDS011;65503;48.534;9.062;2023-03-05T10:14:15;24.30;;;12.00;;
76610;SDS011;65503;48.534;9.062;2023-03-05T10:27:46;24.98;;;11.45;;
76610;SDS011;65503;48.534;9.062;2023-03-05T10:33:08;25.95;;;12.35;;
76610;SDS011;65503;48.534;9.062;2023-03-05T10:35:49;23.75;;;11.60;;
76610;SDS011;65503;48.534;9.062;2023-03-05T10:38:55;26.05;;;11.80;;
76610;SDS011;65503;48.534;9.062;2023-03-05T10:42:07;22.70;;;10.40;;
76610;SDS011;65503;48.534;9.062;2023-03-05T10:44:55;25.17;;;11.32;;
76610;SDS011;65503;48.534;9.062;2023-03-05T10:49:55;27.50;;;12.43;;
76610;SDS011;65503;48.534;9.062;2023-03-05T10:52:37;22.17;;;11.70;;
76610;SDS011;65503;48.534;9.062;2023-03-05T10:55:15;24.33;;;11.48;;
76610;SDS011;65503;48.534;9.062;2023-03-05T10:57:45;22.20;;;10.73;;
76610;SDS011;65503;48.534;9.062;2023-03-05T11:00:20;23.20;;;11.73;;
76610;SDS011;65503;48.534;9.062;2023-03-05T11:02:53;25.00;;;11.98;;
76610;SDS011;65503;48.534;9.062;2023-03-05T11:13:43;25.08;;;12.30;;
76610;SDS011;65503;48.534;9.062;2023-03-05T11:18:50;28.73;;;11.90;;
76610;SDS011;65503;48.534;9.062;2023-03-05T11:21:43;24.00;;;11.40;;
76610;SDS011;65503;48.534;9.062;2023-03-05T11:24:12;26.42;;;11.60;;
76610;SDS011;65503;48.534;9.062;2023-03-05T11:26:53;25.20;;;11.48;;
76610;SDS011;65503;48.534;9.062;2023-03-05T11:29:28;22.67;;;10.93;;
76610;SDS011;65503;48.534;9.062;2023-03-05T11:34:54;22.40;;;11.07;;
76610;SDS011;65503;48.534;9.062;2023-03-05T11:37:23;24.08;;;11.65;;
76610;SDS011;65503;48.534;9.062;2023-03-05T11:40:10;21.23;;;10.00;;
76610;SDS011;65503;48.534;9.062;2023-03-05T11:42:43;20.73;;;10.50;;
76610;SDS011;65503;48.534;9.062;2023-03-05T11:45:14;22.80;;;10.63;;
76610;SDS011;65503;48.534;9.062;2023-03-05T11:47:47;30.30;;;12.20;;
76610;SDS011;65503;48.534;9.062;2023-03-05T11:50:23;22.50;;;11.38;;
76610;SDS011;65503;48.534;9.062;2023-03-05T11:55:39;24.38;;;10.75;;
76610;SDS011;65503;48.534;9.062;2023-03-05T11:58:17;22.83;;;9.30;;
76610;SDS011;65503;48.534;9.062;2023-03-05T12:00:48;20.95;;;10.02;;
76610;SDS011;65503;48.534;9.062;2023-03-05T12:03:16;22.17;;;10.40;;
76610;SDS011;65503;48.534;9.062;2023-03-05T12:05:53;20.70;;;9.85;;
76610;SDS011;65503;48.534;9.062;2023-03-05T12:08:28;22.40;;;11.02;;
76610;SDS011;65503;48.534;9.062;2023-03-05T12:10:59;22.00;;;10.82;;
76610;SDS011;65503;48.534;9.062;2023-03-05T12:13:34;23.25;;;9.73;;
76610;SDS011;65503;48.534;9.062;2023-03-05T12:21:33;25.52;;;10.48;;
76610;SDS011;65503;48.534;9.062;2023-03-05T12:29:28;21.00;;;10.45;;
76610;SDS011;65503;48.534;9.062;2023-03-05T12:47:37;23.45;;;10.88;;
76610;SDS011;65503;48.534;9.062;2023-03-05T12:52:51;21.23;;;10.23;;
76610;SDS011;65503;48.534;9.062;2023-03-05T12:55:21;20.13;;;9.40;;
76610;SDS011;65503;48.534;9.062;2023-03-05T12:57:51;19.70;;;9.48;;
76610;SDS011;65503;48.534;9.062;2023-03-05T13:00:27;18.85;;;8.50;;
76610;SDS011;65503;48.534;9.062;2023-03-05T13:02:59;23.30;;;9.73;;
76610;SDS011;65503;48.534;9.062;2023-03-05T13:05:30;22.85;;;9.73;;
76610;SDS011;65503;48.534;9.062;2023-03-05T13:08:14;24.60;;;10.77;;
76610;SDS011;65503;48.534;9.062;2023-03-05T13:10:49;22.55;;;10.55;;
76610;SDS011;65503;48.534;9.062;2023-03-05T13:13:25;24.92;;;11.18;;
76610;SDS011;65503;48.534;9.062;2023-03-05T13:15:53;23.23;;;10.32;;
76610;SDS011;65503;48.534;9.062;2023-03-05T13:18:30;26.95;;;11.75;;
76610;SDS011;65503;48.534;9.062;2023-03-05T13:23:29;28.10;;;10.57;;
76610;SDS011;65503;48.534;9.062;2023-03-05T13:28:41;20.23;;;10.00;;
76610;SDS011;65503;48.534;9.062;2023-03-05T13:31:19;22.20;;;9.45;;
76610;SDS011;65503;48.534;9.062;2023-03-05T13:33:52;27.02;;;10.95;;
76610;SDS011;65503;48.534;9.062;2023-03-05T13:36:23;21.67;;;9.50;;
76610;SDS011;65503;48.534;9.062;2023-03-05T13:38:51;21.90;;;9.57;;
76610;SDS011;65503;48.534;9.062;2023-03-05T13:43:51;27.02;;;10.68;;
76610;SDS011;65503;48.534;9.062;2023-03-05T13:46:23;21.27;;;9.55;;
76610;SDS011;65503;48.534;9.062;2023-03-05T13:48:50;25.77;;;10.48;;
76610;SDS011;65503;48.534;9.062;2023-03-05T13:51:16;25.25;;;11.52;;
76610;SDS011;65503;48.534;9.062;2023-03-05T13:53:43;24.88;;;10.50;;
76610;SDS011;65503;48.534;9.062;2023-03-05T13:56:14;22.90;;;10.60;;
76610;SDS011;65503;48.534;9.062;2023-03-05T13:59:16;24.38;;;10.30;;
76610;SDS011;65503;48.534;9.062;2023-03-05T14:01:42;23.45;;;9.00;;
76610;SDS011;65503;48.534;9.062;2023-03-05T14:11:56;24.85;;;10.68;;
76610;SDS011;65503;48.534;9.062;2023-03-05T14:14:25;22.00;;;10.32;;
76610;SDS011;65503;48.534;9.062;2023-03-05T14:16:53;24.95;;;10.25;;
76610;SDS011;65503;48.534;9.062;2023-03-05T14:19:29;25.48;;;11.02;;
76610;SDS011;65503;48.534;9.062;2023-03-05T14:21:59;23.63;;;9.75;;
76610;SDS011;65503;48.534;9.062;2023-03-05T14:24:27;22.20;;;9.85;;
76610;SDS011;65503;48.534;9.062;2023-03-05T14:26:57;23.75;;;10.50;;
76610;SDS011;65503;48.534;9.062;2023-03-05T14:29:28;26.92;;;11.30;;
76610;SDS011;65503;48.534;9.062;2023-03-05T14:31:56;29.05;;;11.48;;
76610;SDS011;65503;48.534;9.062;2023-03-05T14:37:15;26.20;;;11.23;;
76610;SDS011;65503;48.534;9.062;2023-03-05T14:39:50;25.90;;;10.25;;
76610;SDS011;65503;48.534;9.062;2023-03-05T14:42:23;24.80;;;10.13;;
76610;SDS011;65503;48.534;9.062;2023-03-05T14:44:53;26.17;;;10.80;;
76610;SDS011;65503;48.534;9.062;2023-03-05T14:47:24;26.67;;;10.10;;
76610;SDS011;65503;48.534;9.062;2023-03-05T14:49:52;22.33;;;9.88;;
76610;SDS011;65503;48.534;9.062;2023-03-05T14:52:20;24.88;;;11.50;;
76610;SDS011;65503;48.534;9.062;2023-03-05T14:54:48;22.63;;;10.07;;
76610;SDS011;65503;48.534;9.062;2023-03-05T14:57:20;26.55;;;10.57;;
76610;SDS011;65503;48.534;9.062;2023-03-05T14:59:48;27.83;;;10.05;;
76610;SDS011;65503;48.534;9.062;2023-03-05T15:02:16;22.23;;;10.48;;
76610;SDS011;65503;48.534;9.062;2023-03-05T15:04:43;18.45;;;9.05;;
76610;SDS011;65503;48.534;9.062;2023-03-05T15:07:16;22.15;;;10.20;;
76610;SDS011;65503;48.534;9.062;2023-03-05T15:09:47;21.73;;;9.70;;
76610;SDS011;65503;48.534;9.062;2023-03-05T15:12:14;24.05;;;11.02;;
76610;SDS011;65503;48.534;9.062;2023-03-05T15:14:42;20.67;;;10.30;;
76610;SDS011;65503;48.534;9.062;2023-03-05T15:17:11;21.60;;;9.68;;
76610;SDS011;65503;48.534;9.062;2023-03-05T15:19:41;20.92;;;8.98;;
76610;SDS011;65503;48.534;9.062;2023-03-05T15:22:09;17.80;;;8.93;;
76610;SDS011;65503;48.534;9.062;2023-03-05T15:24:36;18.48;;;8.63;;
76610;SDS011;65503;48.534;9.062;2023-03-05T15:27:03;17.70;;;8.23;;
76610;SDS011;65503;48.534;9.062;2023-03-05T15:29:31;22.80;;;10.20;;
76610;SDS011;65503;48.534;9.062;2023-03-05T15:31:58;22.45;;;10.48;;
76610;SDS011;65503;48.534;9.062;2023-03-05T15:34:27;24.00;;;10.95;;
76610;SDS011;65503;48.534;9.062;2023-03-05T15:36:54;23.27;;;10.32;;
76610;SDS011;65503;48.534;9.062;2023-03-05T15:39:21;22.92;;;9.98;;
76610;SDS011;65503;48.534;9.062;2023-03-05T15:41:51;23.23;;;10.27;;
76610;SDS011;65503;48.534;9.062;2023-03-05T15:44:18;21.30;;;9.30;;
76610;SDS011;65503;48.534;9.062;2023-03-05T15:46:45;19.75;;;9.75;;
76610;SDS011;65503;48.534;9.062;2023-03-05T15:49:12;20.65;;;9.90;;
76610;SDS011;65503;48.534;9.062;2023-03-05T15:51:39;20.58;;;9.02;;
76610;SDS011;65503;48.534;9.062;2023-03-05T15:54:06;26.23;;;10.70;;
76610;SDS011;65503;48.534;9.062;2023-03-05T15:56:32;27.02;;;11.00;;
76610;SDS011;65503;48.534;9.062;2023-03-05T15:58:59;23.65;;;10.63;;
76610;SDS011;65503;48.534;9.062;2023-03-05T16:01:26;18.23;;;9.30;;
76610;SDS011;65503;48.534;9.062;2023-03-05T16:03:53;25.25;;;10.40;;
76610;SDS011;65503;48.534;9.062;2023-03-05T16:06:19;23.88;;;9.88;;
76610;SDS011;65503;48.534;9.062;2023-03-05T16:08:50;18.20;;;7.75;;
76610;SDS011;65503;48.534;9.062;2023-03-05T16:11:19;22.17;;;9.43;;
76610;SDS011;65503;48.534;9.062;2023-03-05T16:13:46;24.13;;;10.88;;
76610;SDS011;65503;48.534;9.062;2023-03-05T16:16:15;20.85;;;9.57;;